sensor_id;sensor_type;location;lat;lon;timestamp;P1;durP1;ratioP1;P2;durP2;ratioP2
55003;SDS011;40900;52.710;6.438;2022-08-03T00:01:57;6.95;;;2.65;;
55003;SDS011;40900;52.710;6.438;2022-08-03T00:04:23;11.38;;;3.00;;
55003;SDS011;40900;52.710;6.438;2022-08-03T00:06:48;10.77;;;2.67;;
55003;SDS011;40900;52.710;6.438;2022-08-03T00:09:14;8.55;;;2.60;;
55003;SDS011;40900;52.710;6.438;2022-08-03T00:11:40;9.48;;;3.13;;
55003;SDS011;40900;52.710;6.438;2022-08-03T00:14:06;9.85;;;2.60;;
55003;SDS011;40900;52.710;6.438;2022-08-03T00:16:32;9.50;;;2.60;;
55003;SDS011;40900;52.710;6.438;2022-08-03T00:18:58;11.10;;;2.75;;
55003;SDS011;40900;52.710;6.438;2022-08-03T00:21:24;9.45;;;2.25;;
55003;SDS011;40900;52.710;6.438;2022-08-03T00:23:50;8.07;;;2.38;;
55003;SDS011;40900;52.710;6.438;2022-08-03T00:26:15;10.30;;;3.08;;
55003;SDS011;40900;52.710;6.438;2022-08-03T00:28:41;14.40;;;3.65;;
55003;SDS011;40900;52.710;6.438;2022-08-03T00:31:07;11.65;;;2.60;;
55003;SDS011;40900;52.710;6.438;2022-08-03T00:33:33;10.85;;;2.80;;
55003;SDS011;40900;52.710;6.438;2022-08-03T00:35:58;14.13;;;2.40;;
55003;SDS011;40900;52.710;6.438;2022-08-03T00:38:24;11.70;;;2.58;;
55003;SDS011;40900;52.710;6.438;2022-08-03T00:40:50;14.02;;;3.45;;
55003;SDS011;40900;52.710;6.438;2022-08-03T00:43:15;8.55;;;2.85;;
55003;SDS011;40900;52.710;6.438;2022-08-03T00:45:41;11.55;;;3.00;;
55003;SDS011;40900;52.710;6.438;2022-08-03T00:48:09;10.18;;;3.03;;
55003;SDS011;40900;52.710;6.438;2022-08-03T00:50:40;12.55;;;3.00;;
55003;SDS011;40900;52.710;6.438;2022-08-03T00:53:08;5.68;;;2.47;;
55003;SDS011;40900;52.710;6.438;2022-08-03T00:55:36;12.48;;;3.47;;
55003;SDS011;40900;52.710;6.438;2022-08-03T00:58:03;8.68;;;2.70;;
55003;SDS011;40900;52.710;6.438;2022-08-03T01:00:31;8.15;;;2.67;;
55003;SDS011;40900;52.710;6.438;2022-08-03T01:02:57;6.82;;;2.60;;
55003;SDS011;40900;52.710;6.438;2022-08-03T01:05:23;8.65;;;2.78;;
55003;SDS011;40900;52.710;6.438;2022-08-03T01:13:47;9.98;;;3.10;;
55003;SDS011;40900;52.710;6.438;2022-08-03T01:16:17;11.02;;;3.40;;
55003;SDS011;40900;52.710;6.438;2022-08-03T01:25:10;14.85;;;3.00;;
55003;SDS011;40900;52.710;6.438;2022-08-03T01:27:53;6.85;;;3.17;;
55003;SDS011;40900;52.710;6.438;2022-08-03T01:30:32;7.35;;;2.83;;
55003;SDS011;40900;52.710;6.438;2022-08-03T01:33:18;9.77;;;3.10;;
55003;SDS011;40900;52.710;6.438;2022-08-03T01:35:57;8.07;;;2.83;;
55003;SDS011;40900;52.710;6.438;2022-08-03T01:38:26;6.50;;;2.65;;
55003;SDS011;40900;52.710;6.438;2022-08-03T01:41:53;13.57;;;3.67;;
55003;SDS011;40900;52.710;6.438;2022-08-03T01:43:59;10.15;;;3.25;;
55003;SDS011;40900;52.710;6.438;2022-08-03T01:46:27;7.90;;;3.70;;
55003;SDS011;40900;52.710;6.438;2022-08-03T01:48:55;10.43;;;3.10;;
55003;SDS011;40900;52.710;6.438;2022-08-03T01:51:22;10.10;;;3.10;;
55003;SDS011;40900;52.710;6.438;2022-08-03T01:53:49;9.32;;;3.00;;
55003;SDS011;40900;52.710;6.438;2022-08-03T01:56:18;11.10;;;3.10;;
55003;SDS011;40900;52.710;6.438;2022-08-03T01:58:48;10.07;;;3.72;;
55003;SDS011;40900;52.710;6.438;2022-08-03T02:01:16;10.65;;;4.00;;
55003;SDS011;40900;52.710;6.438;2022-08-03T02:03:44;13.60;;;3.58;;
55003;SDS011;40900;52.710;6.438;2022-08-03T02:06:11;8.52;;;3.63;;
55003;SDS011;40900;52.710;6.438;2022-08-03T02:08:38;9.75;;;3.60;;
55003;SDS011;40900;52.710;6.438;2022-08-03T02:11:07;9.63;;;3.30;;
55003;SDS011;40900;52.710;6.438;2022-08-03T02:13:33;16.02;;;3.50;;
55003;SDS011;40900;52.710;6.438;2022-08-03T02:16:02;7.70;;;3.40;;
55003;SDS011;40900;52.710;6.438;2022-08-03T02:18:29;8.60;;;3.80;;
55003;SDS011;40900;52.710;6.438;2022-08-03T02:20:57;8.95;;;3.30;;
55003;SDS011;40900;52.710;6.438;2022-08-03T02:23:28;12.02;;;4.05;;
55003;SDS011;40900;52.710;6.438;2022-08-03T02:25:58;8.23;;;3.20;;
55003;SDS011;40900;52.710;6.438;2022-08-03T02:28:36;10.15;;;3.53;;
55003;SDS011;40900;52.710;6.438;2022-08-03T02:31:08;8.70;;;3.13;;
55003;SDS011;40900;52.710;6.438;2022-08-03T02:33:40;14.68;;;4.28;;
55003;SDS011;40900;52.710;6.438;2022-08-03T02:36:08;11.00;;;3.00;;
55003;SDS011;40900;52.710;6.438;2022-08-03T02:38:37;8.30;;;3.08;;
55003;SDS011;40900;52.710;6.438;2022-08-03T02:41:12;12.57;;;3.83;;
55003;SDS011;40900;52.710;6.438;2022-08-03T02:43:41;9.15;;;3.22;;
55003;SDS011;40900;52.710;6.438;2022-08-03T02:46:11;7.93;;;3.08;;
55003;SDS011;40900;52.710;6.438;2022-08-03T02:48:38;7.55;;;2.80;;
55003;SDS011;40900;52.710;6.438;2022-08-03T02:51:07;11.45;;;3.45;;
55003;SDS011;40900;52.710;6.438;2022-08-03T02:53:33;9.90;;;2.92;;
55003;SDS011;40900;52.710;6.438;2022-08-03T02:56:00;10.48;;;3.10;;
55003;SDS011;40900;52.710;6.438;2022-08-03T02:58:27;8.98;;;3.05;;
55003;SDS011;40900;52.710;6.438;2022-08-03T03:00:55;12.35;;;3.17;;
55003;SDS011;40900;52.710;6.438;2022-08-03T03:03:22;10.73;;;3.38;;
55003;SDS011;40900;52.710;6.438;2022-08-03T03:05:48;12.43;;;3.25;;
55003;SDS011;40900;52.710;6.438;2022-08-03T03:08:16;13.32;;;3.08;;
55003;SDS011;40900;52.710;6.438;2022-08-03T03:10:43;8.88;;;3.10;;
55003;SDS011;40900;52.710;6.438;2022-08-03T03:13:09;8.25;;;2.95;;
55003;SDS011;40900;52.710;6.438;2022-08-03T03:15:37;9.38;;;3.17;;
55003;SDS011;40900;52.710;6.438;2022-08-03T03:18:05;9.60;;;2.95;;
55003;SDS011;40900;52.710;6.438;2022-08-03T03:20:34;5.15;;;2.30;;
55003;SDS011;40900;52.710;6.438;2022-08-03T03:23:03;10.18;;;3.00;;
55003;SDS011;40900;52.710;6.438;2022-08-03T03:25:30;11.52;;;3.25;;
55003;SDS011;40900;52.710;6.438;2022-08-03T03:27:57;9.55;;;3.08;;
55003;SDS011;40900;52.710;6.438;2022-08-03T03:30:24;12.30;;;3.70;;
55003;SDS011;40900;52.710;6.438;2022-08-03T03:32:51;10.82;;;3.75;;
55003;SDS011;40900;52.710;6.438;2022-08-03T03:35:17;13.52;;;3.47;;
55003;SDS011;40900;52.710;6.438;2022-08-03T03:37:43;12.35;;;3.30;;
55003;SDS011;40900;52.710;6.438;2022-08-03T03:40:09;16.92;;;3.30;;
55003;SDS011;40900;52.710;6.438;2022-08-03T03:42:35;10.63;;;2.95;;
55003;SDS011;40900;52.710;6.438;2022-08-03T03:45:06;10.43;;;3.00;;
55003;SDS011;40900;52.710;6.438;2022-08-03T03:47:35;10.20;;;2.88;;
55003;SDS011;40900;52.710;6.438;2022-08-03T03:50:02;11.93;;;3.00;;
55003;SDS011;40900;52.710;6.438;2022-08-03T03:52:30;9.40;;;2.88;;
55003;SDS011;40900;52.710;6.438;2022-08-03T03:54:56;14.77;;;3.10;;
55003;SDS011;40900;52.710;6.438;2022-08-03T03:57:22;12.02;;;3.70;;
55003;SDS011;40900;52.710;6.438;2022-08-03T03:59:47;10.35;;;3.60;;
55003;SDS011;40900;52.710;6.438;2022-08-03T04:02:13;10.70;;;3.33;;
55003;SDS011;40900;52.710;6.438;2022-08-03T04:04:39;8.75;;;3.30;;
55003;SDS011;40900;52.710;6.438;2022-08-03T04:07:24;11.07;;;3.50;;
55003;SDS011;40900;52.710;6.438;2022-08-03T04:10:10;10.95;;;3.08;;
55003;SDS011;40900;52.710;6.438;2022-08-03T04:12:58;12.77;;;3.22;;
55003;SDS011;40900;52.710;6.438;2022-08-03T04:15:26;10.13;;;3.40;;
55003;SDS011;40900;52.710;6.438;2022-08-03T04:17:56;13.85;;;3.65;;
55003;SDS011;40900;52.710;6.438;2022-08-03T04:20:23;10.93;;;3.22;;
55003;SDS011;40900;52.710;6.438;2022-08-03T04:22:53;9.05;;;3.28;;
55003;SDS011;40900;52.710;6.438;2022-08-03T04:25:20;13.15;;;3.55;;
55003;SDS011;40900;52.710;6.438;2022-08-03T04:27:50;10.05;;;3.30;;
55003;SDS011;40900;52.710;6.438;2022-08-03T04:30:17;8.50;;;3.30;;
55003;SDS011;40900;52.710;6.438;2022-08-03T04:32:43;10.25;;;3.30;;
55003;SDS011;40900;52.710;6.438;2022-08-03T04:35:15;10.07;;;3.42;;
55003;SDS011;40900;52.710;6.438;2022-08-03T04:37:46;10.57;;;3.83;;
55003;SDS011;40900;52.710;6.438;2022-08-03T04:40:19;10.07;;;3.90;;
55003;SDS011;40900;52.710;6.438;2022-08-03T04:42:54;8.65;;;3.38;;
55003;SDS011;40900;52.710;6.438;2022-08-03T04:45:22;12.70;;;4.50;;
55003;SDS011;40900;52.710;6.438;2022-08-03T04:47:50;8.68;;;3.50;;
55003;SDS011;40900;52.710;6.438;2022-08-03T04:50:16;12.48;;;4.38;;
55003;SDS011;40900;52.710;6.438;2022-08-03T04:52:42;10.38;;;3.90;;
55003;SDS011;40900;52.710;6.438;2022-08-03T04:55:08;13.63;;;4.13;;
55003;SDS011;40900;52.710;6.438;2022-08-03T04:57:34;11.85;;;3.83;;
55003;SDS011;40900;52.710;6.438;2022-08-03T05:00:00;16.45;;;4.30;;
55003;SDS011;40900;52.710;6.438;2022-08-03T05:02:25;12.45;;;4.22;;
55003;SDS011;40900;52.710;6.438;2022-08-03T05:04:51;10.82;;;4.05;;
55003;SDS011;40900;52.710;6.438;2022-08-03T05:07:17;13.93;;;4.35;;
55003;SDS011;40900;52.710;6.438;2022-08-03T05:09:43;10.57;;;4.53;;
55003;SDS011;40900;52.710;6.438;2022-08-03T05:12:09;13.15;;;4.30;;
55003;SDS011;40900;52.710;6.438;2022-08-03T05:14:36;10.95;;;3.85;;
55003;SDS011;40900;52.710;6.438;2022-08-03T05:17:06;10.82;;;4.20;;
55003;SDS011;40900;52.710;6.438;2022-08-03T05:19:33;13.23;;;4.63;;
55003;SDS011;40900;52.710;6.438;2022-08-03T05:21:59;13.93;;;4.32;;
55003;SDS011;40900;52.710;6.438;2022-08-03T05:24:25;13.68;;;4.35;;
55003;SDS011;40900;52.710;6.438;2022-08-03T05:26:51;10.93;;;4.28;;
55003;SDS011;40900;52.710;6.438;2022-08-03T05:29:17;10.40;;;4.13;;
55003;SDS011;40900;52.710;6.438;2022-08-03T05:31:43;13.40;;;4.80;;
55003;SDS011;40900;52.710;6.438;2022-08-03T05:34:08;12.10;;;4.50;;
55003;SDS011;40900;52.710;6.438;2022-08-03T05:36:34;13.77;;;4.07;;
55003;SDS011;40900;52.710;6.438;2022-08-03T05:39:00;9.25;;;5.03;;
55003;SDS011;40900;52.710;6.438;2022-08-03T05:41:26;11.27;;;5.10;;
55003;SDS011;40900;52.710;6.438;2022-08-03T05:43:51;12.77;;;4.57;;
55003;SDS011;40900;52.710;6.438;2022-08-03T05:46:19;17.20;;;4.55;;
55003;SDS011;40900;52.710;6.438;2022-08-03T05:48:45;15.82;;;4.90;;
55003;SDS011;40900;52.710;6.438;2022-08-03T05:51:11;13.68;;;5.45;;
55003;SDS011;40900;52.710;6.438;2022-08-03T05:53:38;14.48;;;5.50;;
55003;SDS011;40900;52.710;6.438;2022-08-03T05:56:04;14.23;;;5.28;;
55003;SDS011;40900;52.710;6.438;2022-08-03T05:58:30;14.63;;;5.30;;
55003;SDS011;40900;52.710;6.438;2022-08-03T06:00:56;13.35;;;4.82;;
55003;SDS011;40900;52.710;6.438;2022-08-03T06:03:22;13.68;;;5.20;;
55003;SDS011;40900;52.710;6.438;2022-08-03T06:05:47;12.45;;;5.05;;
55003;SDS011;40900;52.710;6.438;2022-08-03T06:08:13;19.08;;;5.45;;
55003;SDS011;40900;52.710;6.438;2022-08-03T06:10:39;10.40;;;4.80;;
55003;SDS011;40900;52.710;6.438;2022-08-03T06:13:04;19.85;;;5.45;;
55003;SDS011;40900;52.710;6.438;2022-08-03T06:15:30;19.13;;;5.80;;
55003;SDS011;40900;52.710;6.438;2022-08-03T06:17:57;16.70;;;5.32;;
55003;SDS011;40900;52.710;6.438;2022-08-03T06:20:23;13.77;;;4.95;;
55003;SDS011;40900;52.710;6.438;2022-08-03T06:22:49;15.10;;;5.32;;
55003;SDS011;40900;52.710;6.438;2022-08-03T06:25:15;12.23;;;5.20;;
55003;SDS011;40900;52.710;6.438;2022-08-03T06:27:41;16.58;;;5.07;;
55003;SDS011;40900;52.710;6.438;2022-08-03T06:30:07;17.17;;;5.10;;
55003;SDS011;40900;52.710;6.438;2022-08-03T06:32:35;13.38;;;5.00;;
55003;SDS011;40900;52.710;6.438;2022-08-03T06:35:02;14.40;;;4.95;;
55003;SDS011;40900;52.710;6.438;2022-08-03T06:37:28;11.50;;;4.70;;
55003;SDS011;40900;52.710;6.438;2022-08-03T06:39:54;10.65;;;5.25;;
55003;SDS011;40900;52.710;6.438;2022-08-03T06:42:19;12.95;;;4.72;;
55003;SDS011;40900;52.710;6.438;2022-08-03T06:44:45;12.32;;;5.50;;
55003;SDS011;40900;52.710;6.438;2022-08-03T06:47:11;15.23;;;5.13;;
55003;SDS011;40900;52.710;6.438;2022-08-03T06:49:37;16.42;;;5.50;;
55003;SDS011;40900;52.710;6.438;2022-08-03T06:52:02;19.60;;;5.40;;
55003;SDS011;40900;52.710;6.438;2022-08-03T06:54:29;12.60;;;4.55;;
55003;SDS011;40900;52.710;6.438;2022-08-03T06:56:55;17.92;;;5.30;;
55003;SDS011;40900;52.710;6.438;2022-08-03T06:59:20;17.27;;;4.38;;
55003;SDS011;40900;52.710;6.438;2022-08-03T07:01:46;14.70;;;4.95;;
55003;SDS011;40900;52.710;6.438;2022-08-03T07:04:12;15.20;;;5.18;;
55003;SDS011;40900;52.710;6.438;2022-08-03T07:06:37;24.73;;;5.70;;
55003;SDS011;40900;52.710;6.438;2022-08-03T07:09:03;15.85;;;5.03;;
55003;SDS011;40900;52.710;6.438;2022-08-03T07:11:29;15.75;;;4.63;;
55003;SDS011;40900;52.710;6.438;2022-08-03T07:13:55;13.80;;;4.90;;
55003;SDS011;40900;52.710;6.438;2022-08-03T07:16:21;13.73;;;4.53;;
55003;SDS011;40900;52.710;6.438;2022-08-03T07:18:47;21.92;;;4.72;;
55003;SDS011;40900;52.710;6.438;2022-08-03T07:21:13;19.70;;;4.82;;
55003;SDS011;40900;52.710;6.438;2022-08-03T07:23:40;19.08;;;5.30;;
55003;SDS011;40900;52.710;6.438;2022-08-03T07:26:06;15.30;;;4.85;;
55003;SDS011;40900;52.710;6.438;2022-08-03T07:28:32;17.83;;;4.82;;
55003;SDS011;40900;52.710;6.438;2022-08-03T07:30:57;15.55;;;4.88;;
55003;SDS011;40900;52.710;6.438;2022-08-03T07:33:23;14.40;;;4.57;;
55003;SDS011;40900;52.710;6.438;2022-08-03T07:35:49;15.77;;;4.82;;
55003;SDS011;40900;52.710;6.438;2022-08-03T07:38:15;13.73;;;4.40;;
55003;SDS011;40900;52.710;6.438;2022-08-03T07:40:40;17.30;;;5.30;;
55003;SDS011;40900;52.710;6.438;2022-08-03T07:43:06;18.13;;;5.00;;
55003;SDS011;40900;52.710;6.438;2022-08-03T07:45:32;18.17;;;4.72;;
55003;SDS011;40900;52.710;6.438;2022-08-03T07:47:58;16.60;;;4.38;;
55003;SDS011;40900;52.710;6.438;2022-08-03T07:50:24;17.65;;;4.75;;
55003;SDS011;40900;52.710;6.438;2022-08-03T07:52:50;13.20;;;4.60;;
55003;SDS011;40900;52.710;6.438;2022-08-03T07:55:18;14.40;;;4.30;;
55003;SDS011;40900;52.710;6.438;2022-08-03T07:57:45;17.52;;;4.68;;
55003;SDS011;40900;52.710;6.438;2022-08-03T08:00:15;13.77;;;4.47;;
55003;SDS011;40900;52.710;6.438;2022-08-03T08:02:42;17.00;;;4.00;;
55003;SDS011;40900;52.710;6.438;2022-08-03T08:05:08;25.80;;;4.43;;
55003;SDS011;40900;52.710;6.438;2022-08-03T08:07:35;13.52;;;4.13;;
55003;SDS011;40900;52.710;6.438;2022-08-03T08:10:02;21.58;;;5.07;;
55003;SDS011;40900;52.710;6.438;2022-08-03T08:12:29;23.63;;;4.50;;
55003;SDS011;40900;52.710;6.438;2022-08-03T08:14:55;15.25;;;4.15;;
55003;SDS011;40900;52.710;6.438;2022-08-03T08:17:21;13.70;;;4.13;;
55003;SDS011;40900;52.710;6.438;2022-08-03T08:19:46;23.33;;;4.68;;
55003;SDS011;40900;52.710;6.438;2022-08-03T08:22:12;16.90;;;3.95;;
55003;SDS011;40900;52.710;6.438;2022-08-03T08:24:38;20.15;;;5.18;;
55003;SDS011;40900;52.710;6.438;2022-08-03T08:27:04;15.93;;;4.28;;
55003;SDS011;40900;52.710;6.438;2022-08-03T08:29:29;23.60;;;4.72;;
55003;SDS011;40900;52.710;6.438;2022-08-03T08:31:55;17.15;;;4.25;;
55003;SDS011;40900;52.710;6.438;2022-08-03T08:34:21;16.50;;;4.22;;
55003;SDS011;40900;52.710;6.438;2022-08-03T08:36:46;20.20;;;4.03;;
55003;SDS011;40900;52.710;6.438;2022-08-03T08:39:12;19.80;;;4.65;;
55003;SDS011;40900;52.710;6.438;2022-08-03T08:41:38;18.08;;;4.35;;
55003;SDS011;40900;52.710;6.438;2022-08-03T08:44:03;17.30;;;4.28;;
55003;SDS011;40900;52.710;6.438;2022-08-03T08:46:32;21.40;;;3.88;;
55003;SDS011;40900;52.710;6.438;2022-08-03T08:48:58;20.27;;;4.10;;
55003;SDS011;40900;52.710;6.438;2022-08-03T08:51:28;19.92;;;4.20;;
55003;SDS011;40900;52.710;6.438;2022-08-03T08:53:55;17.58;;;3.88;;
55003;SDS011;40900;52.710;6.438;2022-08-03T08:56:25;17.98;;;3.92;;
55003;SDS011;40900;52.710;6.438;2022-08-03T08:58:51;17.45;;;4.00;;
55003;SDS011;40900;52.710;6.438;2022-08-03T09:01:22;17.85;;;3.72;;
55003;SDS011;40900;52.710;6.438;2022-08-03T09:03:47;18.90;;;4.43;;
55003;SDS011;40900;52.710;6.438;2022-08-03T09:06:14;16.73;;;3.47;;
55003;SDS011;40900;52.710;6.438;2022-08-03T09:08:40;17.05;;;3.33;;
55003;SDS011;40900;52.710;6.438;2022-08-03T09:11:06;21.60;;;4.72;;
55003;SDS011;40900;52.710;6.438;2022-08-03T09:13:33;18.85;;;3.92;;
55003;SDS011;40900;52.710;6.438;2022-08-03T09:16:32;16.00;;;3.83;;
55003;SDS011;40900;52.710;6.438;2022-08-03T09:18:51;15.32;;;3.67;;
55003;SDS011;40900;52.710;6.438;2022-08-03T09:23:54;13.02;;;3.60;;
55003;SDS011;40900;52.710;6.438;2022-08-03T09:26:21;16.50;;;4.18;;
55003;SDS011;40900;52.710;6.438;2022-08-03T09:29:04;16.98;;;3.90;;
55003;SDS011;40900;52.710;6.438;2022-08-03T09:31:37;15.10;;;3.47;;
55003;SDS011;40900;52.710;6.438;2022-08-03T09:34:07;19.00;;;4.88;;
55003;SDS011;40900;52.710;6.438;2022-08-03T09:36:39;15.32;;;3.47;;
55003;SDS011;40900;52.710;6.438;2022-08-03T09:39:09;17.35;;;3.95;;
55003;SDS011;40900;52.710;6.438;2022-08-03T09:41:40;18.75;;;3.63;;
55003;SDS011;40900;52.710;6.438;2022-08-03T09:44:07;13.30;;;3.47;;
55003;SDS011;40900;52.710;6.438;2022-08-03T09:46:49;17.05;;;4.40;;
55003;SDS011;40900;52.710;6.438;2022-08-03T09:49:16;17.75;;;4.03;;
55003;SDS011;40900;52.710;6.438;2022-08-03T09:51:42;19.85;;;4.15;;
55003;SDS011;40900;52.710;6.438;2022-08-03T09:54:08;18.35;;;4.20;;
55003;SDS011;40900;52.710;6.438;2022-08-03T09:56:37;19.52;;;4.15;;
55003;SDS011;40900;52.710;6.438;2022-08-03T09:59:11;16.38;;;3.95;;
55003;SDS011;40900;52.710;6.438;2022-08-03T10:01:46;19.05;;;4.78;;
55003;SDS011;40900;52.710;6.438;2022-08-03T10:04:13;19.10;;;3.30;;
55003;SDS011;40900;52.710;6.438;2022-08-03T10:06:42;25.52;;;4.40;;
55003;SDS011;40900;52.710;6.438;2022-08-03T10:09:13;14.82;;;4.38;;
55003;SDS011;40900;52.710;6.438;2022-08-03T10:11:41;19.27;;;3.70;;
55003;SDS011;40900;52.710;6.438;2022-08-03T10:14:08;17.67;;;3.72;;
55003;SDS011;40900;52.710;6.438;2022-08-03T10:16:36;16.65;;;4.07;;
55003;SDS011;40900;52.710;6.438;2022-08-03T10:19:04;19.33;;;4.50;;
55003;SDS011;40900;52.710;6.438;2022-08-03T10:21:33;20.55;;;3.72;;
55003;SDS011;40900;52.710;6.438;2022-08-03T10:24:03;19.63;;;4.55;;
55003;SDS011;40900;52.710;6.438;2022-08-03T10:26:31;18.13;;;4.10;;
55003;SDS011;40900;52.710;6.438;2022-08-03T10:28:59;15.85;;;3.80;;
55003;SDS011;40900;52.710;6.438;2022-08-03T10:31:39;18.80;;;4.28;;
55003;SDS011;40900;52.710;6.438;2022-08-03T10:34:16;13.45;;;3.42;;
55003;SDS011;40900;52.710;6.438;2022-08-03T10:36:46;16.08;;;3.70;;
55003;SDS011;40900;52.710;6.438;2022-08-03T10:39:13;16.63;;;4.55;;
55003;SDS011;40900;52.710;6.438;2022-08-03T10:41:43;17.58;;;3.92;;
55003;SDS011;40900;52.710;6.438;2022-08-03T10:44:17;14.63;;;3.80;;
55003;SDS011;40900;52.710;6.438;2022-08-03T10:46:45;20.75;;;4.95;;
55003;SDS011;40900;52.710;6.438;2022-08-03T10:49:18;18.88;;;3.65;;
55003;SDS011;40900;52.710;6.438;2022-08-03T10:51:46;19.75;;;4.13;;
55003;SDS011;40900;52.710;6.438;2022-08-03T10:57:00;17.27;;;3.95;;
55003;SDS011;40900;52.710;6.438;2022-08-03T11:02:10;16.90;;;3.72;;
55003;SDS011;40900;52.710;6.438;2022-08-03T11:04:38;23.08;;;4.28;;
55003;SDS011;40900;52.710;6.438;2022-08-03T11:07:17;16.52;;;3.75;;
55003;SDS011;40900;52.710;6.438;2022-08-03T11:09:49;17.08;;;3.47;;
55003;SDS011;40900;52.710;6.438;2022-08-03T11:12:23;23.40;;;4.55;;
55003;SDS011;40900;52.710;6.438;2022-08-03T11:14:54;22.05;;;4.28;;
55003;SDS011;40900;52.710;6.438;2022-08-03T11:17:20;20.73;;;4.40;;
55003;SDS011;40900;52.710;6.438;2022-08-03T11:19:50;21.05;;;3.80;;
55003;SDS011;40900;52.710;6.438;2022-08-03T11:22:18;21.80;;;4.13;;
55003;SDS011;40900;52.710;6.438;2022-08-03T11:27:25;18.60;;;4.30;;
55003;SDS011;40900;52.710;6.438;2022-08-03T11:33:23;18.85;;;3.92;;
55003;SDS011;40900;52.710;6.438;2022-08-03T11:35:21;19.95;;;4.05;;
55003;SDS011;40900;52.710;6.438;2022-08-03T11:40:38;17.80;;;4.05;;
55003;SDS011;40900;52.710;6.438;2022-08-03T11:45:56;16.83;;;3.75;;
55003;SDS011;40900;52.710;6.438;2022-08-03T11:48:32;16.90;;;4.78;;
55003;SDS011;40900;52.710;6.438;2022-08-03T11:51:03;22.60;;;4.05;;
55003;SDS011;40900;52.710;6.438;2022-08-03T11:53:43;31.08;;;5.43;;
55003;SDS011;40900;52.710;6.438;2022-08-03T11:56:11;17.23;;;4.13;;
55003;SDS011;40900;52.710;6.438;2022-08-03T11:58:44;18.52;;;4.10;;
55003;SDS011;40900;52.710;6.438;2022-08-03T12:01:16;20.40;;;3.75;;
55003;SDS011;40900;52.710;6.438;2022-08-03T12:03:42;19.25;;;3.70;;
55003;SDS011;40900;52.710;6.438;2022-08-03T12:06:09;17.63;;;3.75;;
55003;SDS011;40900;52.710;6.438;2022-08-03T12:08:36;16.60;;;4.10;;
55003;SDS011;40900;52.710;6.438;2022-08-03T12:11:02;18.95;;;3.40;;
55003;SDS011;40900;52.710;6.438;2022-08-03T12:13:43;17.75;;;3.97;;
55003;SDS011;40900;52.710;6.438;2022-08-03T12:16:18;16.30;;;3.67;;
55003;SDS011;40900;52.710;6.438;2022-08-03T12:18:45;16.88;;;3.08;;
55003;SDS011;40900;52.710;6.438;2022-08-03T12:21:48;24.42;;;3.78;;
55003;SDS011;40900;52.710;6.438;2022-08-03T12:24:15;15.75;;;3.63;;
55003;SDS011;40900;52.710;6.438;2022-08-03T12:26:50;17.38;;;3.92;;
55003;SDS011;40900;52.710;6.438;2022-08-03T12:29:19;17.85;;;3.33;;
55003;SDS011;40900;52.710;6.438;2022-08-03T12:31:46;17.55;;;3.53;;
55003;SDS011;40900;52.710;6.438;2022-08-03T12:34:12;17.67;;;3.53;;
55003;SDS011;40900;52.710;6.438;2022-08-03T12:36:37;18.88;;;3.95;;
55003;SDS011;40900;52.710;6.438;2022-08-03T12:39:13;16.40;;;3.30;;
55003;SDS011;40900;52.710;6.438;2022-08-03T12:41:39;18.98;;;3.35;;
55003;SDS011;40900;52.710;6.438;2022-08-03T12:44:05;12.75;;;3.53;;
55003;SDS011;40900;52.710;6.438;2022-08-03T12:46:36;17.75;;;3.70;;
55003;SDS011;40900;52.710;6.438;2022-08-03T12:49:04;18.05;;;3.83;;
55003;SDS011;40900;52.710;6.438;2022-08-03T12:52:13;15.77;;;3.33;;
55003;SDS011;40900;52.710;6.438;2022-08-03T12:54:24;18.73;;;3.45;;
55003;SDS011;40900;52.710;6.438;2022-08-03T12:56:56;14.60;;;3.42;;
55003;SDS011;40900;52.710;6.438;2022-08-03T12:59:22;12.13;;;3.15;;
55003;SDS011;40900;52.710;6.438;2022-08-03T13:01:49;14.07;;;3.17;;
55003;SDS011;40900;52.710;6.438;2022-08-03T13:04:24;11.18;;;2.90;;
55003;SDS011;40900;52.710;6.438;2022-08-03T13:07:00;12.52;;;3.30;;
55003;SDS011;40900;52.710;6.438;2022-08-03T13:09:27;13.68;;;3.03;;
55003;SDS011;40900;52.710;6.438;2022-08-03T13:12:09;17.05;;;3.17;;
55003;SDS011;40900;52.710;6.438;2022-08-03T13:14:46;14.43;;;3.05;;
55003;SDS011;40900;52.710;6.438;2022-08-03T13:17:13;13.80;;;2.60;;
55003;SDS011;40900;52.710;6.438;2022-08-03T13:19:40;14.43;;;3.95;;
55003;SDS011;40900;52.710;6.438;2022-08-03T13:22:10;16.63;;;3.80;;
55003;SDS011;40900;52.710;6.438;2022-08-03T13:24:47;11.88;;;2.92;;
55003;SDS011;40900;52.710;6.438;2022-08-03T13:27:15;19.27;;;3.83;;
55003;SDS011;40900;52.710;6.438;2022-08-03T13:29:40;12.70;;;3.28;;
55003;SDS011;40900;52.710;6.438;2022-08-03T13:32:07;13.25;;;3.38;;
55003;SDS011;40900;52.710;6.438;2022-08-03T13:34:33;15.68;;;3.08;;
55003;SDS011;40900;52.710;6.438;2022-08-03T13:36:59;13.40;;;2.97;;
55003;SDS011;40900;52.710;6.438;2022-08-03T13:39:25;13.85;;;3.22;;
55003;SDS011;40900;52.710;6.438;2022-08-03T13:41:50;14.00;;;3.08;;
55003;SDS011;40900;52.710;6.438;2022-08-03T13:44:17;15.02;;;3.65;;
55003;SDS011;40900;52.710;6.438;2022-08-03T13:46:43;15.77;;;3.33;;
55003;SDS011;40900;52.710;6.438;2022-08-03T13:49:10;15.43;;;4.72;;
55003;SDS011;40900;52.710;6.438;2022-08-03T13:51:35;13.18;;;2.65;;
55003;SDS011;40900;52.710;6.438;2022-08-03T13:54:01;13.80;;;2.70;;
55003;SDS011;40900;52.710;6.438;2022-08-03T13:56:27;12.05;;;2.80;;
55003;SDS011;40900;52.710;6.438;2022-08-03T13:58:54;17.67;;;3.30;;
55003;SDS011;40900;52.710;6.438;2022-08-03T14:01:20;11.43;;;3.20;;
55003;SDS011;40900;52.710;6.438;2022-08-03T14:03:46;13.65;;;2.80;;
55003;SDS011;40900;52.710;6.438;2022-08-03T14:06:16;14.10;;;2.83;;
55003;SDS011;40900;52.710;6.438;2022-08-03T14:08:42;14.75;;;2.58;;
55003;SDS011;40900;52.710;6.438;2022-08-03T14:11:09;15.18;;;4.43;;
55003;SDS011;40900;52.710;6.438;2022-08-03T14:13:35;11.90;;;2.70;;
55003;SDS011;40900;52.710;6.438;2022-08-03T14:16:01;14.30;;;3.08;;
55003;SDS011;40900;52.710;6.438;2022-08-03T14:18:27;13.13;;;3.30;;
55003;SDS011;40900;52.710;6.438;2022-08-03T14:20:52;14.93;;;3.15;;
55003;SDS011;40900;52.710;6.438;2022-08-03T14:23:18;16.20;;;2.83;;
55003;SDS011;40900;52.710;6.438;2022-08-03T14:25:44;14.57;;;2.88;;
55003;SDS011;40900;52.710;6.438;2022-08-03T14:28:10;12.85;;;2.60;;
55003;SDS011;40900;52.710;6.438;2022-08-03T14:30:36;10.13;;;2.50;;
55003;SDS011;40900;52.710;6.438;2022-08-03T14:33:02;12.63;;;2.85;;
55003;SDS011;40900;52.710;6.438;2022-08-03T14:35:28;13.70;;;2.85;;
55003;SDS011;40900;52.710;6.438;2022-08-03T14:37:53;12.07;;;2.63;;
55003;SDS011;40900;52.710;6.438;2022-08-03T14:40:19;14.13;;;2.47;;
55003;SDS011;40900;52.710;6.438;2022-08-03T14:42:45;9.60;;;2.70;;
55003;SDS011;40900;52.710;6.438;2022-08-03T14:45:11;11.95;;;3.13;;
55003;SDS011;40900;52.710;6.438;2022-08-03T14:47:38;13.52;;;2.58;;
55003;SDS011;40900;52.710;6.438;2022-08-03T14:50:05;13.52;;;2.97;;
55003;SDS011;40900;52.710;6.438;2022-08-03T14:52:31;9.95;;;2.88;;
55003;SDS011;40900;52.710;6.438;2022-08-03T14:54:57;10.18;;;2.53;;
55003;SDS011;40900;52.710;6.438;2022-08-03T14:57:24;14.05;;;2.50;;
55003;SDS011;40900;52.710;6.438;2022-08-03T14:59:50;11.10;;;2.83;;
55003;SDS011;40900;52.710;6.438;2022-08-03T15:02:16;12.90;;;4.05;;
55003;SDS011;40900;52.710;6.438;2022-08-03T15:04:41;10.68;;;2.55;;
55003;SDS011;40900;52.710;6.438;2022-08-03T15:07:07;12.50;;;3.45;;
55003;SDS011;40900;52.710;6.438;2022-08-03T15:09:33;16.08;;;4.95;;
55003;SDS011;40900;52.710;6.438;2022-08-03T15:11:59;11.05;;;2.72;;
55003;SDS011;40900;52.710;6.438;2022-08-03T15:14:24;9.05;;;2.80;;